sensor_id;sensor_type;location;lat;lon;timestamp;temperature;humidity
26099;DHT22;13860;52.370;6.764;2023-03-12T00:00:26;1.80;77.50
26099;DHT22;13860;52.370;6.764;2023-03-12T00:03:32;1.80;77.60
26099;DHT22;13860;52.370;6.764;2023-03-12T00:06:36;1.80;77.60
26099;DHT22;13860;52.370;6.764;2023-03-12T00:09:44;1.80;77.60
26099;DHT22;13860;52.370;6.764;2023-03-12T00:12:48;1.80;77.70
26099;DHT22;13860;52.370;6.764;2023-03-12T00:15:54;1.80;77.70
26099;DHT22;13860;52.370;6.764;2023-03-12T00:18:58;1.70;77.70
26099;DHT22;13860;52.370;6.764;2023-03-12T00:22:04;1.80;77.70
26099;DHT22;13860;52.370;6.764;2023-03-12T00:25:14;1.70;77.70
26099;DHT22;13860;52.370;6.764;2023-03-12T00:28:20;1.70;77.70
26099;DHT22;13860;52.370;6.764;2023-03-12T00:31:26;1.80;77.80
26099;DHT22;13860;52.370;6.764;2023-03-12T00:34:32;1.70;77.70
26099;DHT22;13860;52.370;6.764;2023-03-12T00:37:37;1.70;77.70
26099;DHT22;13860;52.370;6.764;2023-03-12T00:40:45;1.70;77.80
26099;DHT22;13860;52.370;6.764;2023-03-12T00:43:50;1.70;77.80
26099;DHT22;13860;52.370;6.764;2023-03-12T00:46:56;1.70;77.80
26099;DHT22;13860;52.370;6.764;2023-03-12T00:50:00;1.70;77.80
26099;DHT22;13860;52.370;6.764;2023-03-12T00:53:06;1.60;77.80
26099;DHT22;13860;52.370;6.764;2023-03-12T00:56:12;1.60;77.90
26099;DHT22;13860;52.370;6.764;2023-03-12T00:59:19;1.60;78.00
26099;DHT22;13860;52.370;6.764;2023-03-12T01:02:23;1.60;78.00
26099;DHT22;13860;52.370;6.764;2023-03-12T01:05:29;1.60;78.00
26099;DHT22;13860;52.370;6.764;2023-03-12T01:08:38;1.60;78.00
26099;DHT22;13860;52.370;6.764;2023-03-12T01:11:46;1.60;78.00
26099;DHT22;13860;52.370;6.764;2023-03-12T01:14:50;1.50;78.00
26099;DHT22;13860;52.370;6.764;2023-03-12T01:17:56;1.50;78.00
26099;DHT22;13860;52.370;6.764;2023-03-12T01:21:00;1.50;78.00
26099;DHT22;13860;52.370;6.764;2023-03-12T01:24:07;1.50;78.00
26099;DHT22;13860;52.370;6.764;2023-03-12T01:27:13;1.50;78.10
26099;DHT22;13860;52.370;6.764;2023-03-12T01:30:19;1.50;78.10
26099;DHT22;13860;52.370;6.764;2023-03-12T01:33:24;1.50;78.10
26099;DHT22;13860;52.370;6.764;2023-03-12T01:36:30;1.50;78.10
26099;DHT22;13860;52.370;6.764;2023-03-12T01:39:34;1.50;78.20
26099;DHT22;13860;52.370;6.764;2023-03-12T01:42:42;1.50;78.10
26099;DHT22;13860;52.370;6.764;2023-03-12T01:46:01;1.50;78.20
26099;DHT22;13860;52.370;6.764;2023-03-12T01:49:11;1.50;78.20
26099;DHT22;13860;52.370;6.764;2023-03-12T01:52:19;1.50;78.20
26099;DHT22;13860;52.370;6.764;2023-03-12T01:55:29;1.50;78.20
26099;DHT22;13860;52.370;6.764;2023-03-12T01:58:37;1.50;78.30
26099;DHT22;13860;52.370;6.764;2023-03-12T02:01:45;1.50;78.30
26099;DHT22;13860;52.370;6.764;2023-03-12T02:05:02;1.40;78.20
26099;DHT22;13860;52.370;6.764;2023-03-12T02:08:09;1.50;78.30
26099;DHT22;13860;52.370;6.764;2023-03-12T02:11:14;1.50;78.30
26099;DHT22;13860;52.370;6.764;2023-03-12T02:14:22;1.50;78.40
26099;DHT22;13860;52.370;6.764;2023-03-12T02:17:26;1.50;78.40
26099;DHT22;13860;52.370;6.764;2023-03-12T02:20:38;1.50;78.40
26099;DHT22;13860;52.370;6.764;2023-03-12T02:23:46;1.50;78.40
26099;DHT22;13860;52.370;6.764;2023-03-12T02:26:56;1.50;78.40
26099;DHT22;13860;52.370;6.764;2023-03-12T02:30:02;1.50;78.40
26099;DHT22;13860;52.370;6.764;2023-03-12T02:33:10;1.50;78.40
26099;DHT22;13860;52.370;6.764;2023-03-12T02:36:15;1.50;78.50
26099;DHT22;13860;52.370;6.764;2023-03-12T02:39:21;1.50;78.40
26099;DHT22;13860;52.370;6.764;2023-03-12T02:42:29;1.50;78.50
26099;DHT22;13860;52.370;6.764;2023-03-12T02:45:35;1.50;78.50
26099;DHT22;13860;52.370;6.764;2023-03-12T02:48:41;1.60;79.10
26099;DHT22;13860;52.370;6.764;2023-03-12T02:51:46;1.60;78.60
26099;DHT22;13860;52.370;6.764;2023-03-12T02:54:52;1.60;78.60
26099;DHT22;13860;52.370;6.764;2023-03-12T02:57:58;1.60;78.50
26099;DHT22;13860;52.370;6.764;2023-03-12T03:01:06;1.60;78.60
26099;DHT22;13860;52.370;6.764;2023-03-12T03:04:10;1.60;78.50
26099;DHT22;13860;52.370;6.764;2023-03-12T03:07:17;1.60;78.60
26099;DHT22;13860;52.370;6.764;2023-03-12T03:10:21;1.60;78.50
26099;DHT22;13860;52.370;6.764;2023-03-12T03:13:28;1.70;78.60
26099;DHT22;13860;52.370;6.764;2023-03-12T03:16:33;1.70;78.60
26099;DHT22;13860;52.370;6.764;2023-03-12T03:19:39;1.70;78.60
26099;DHT22;13860;52.370;6.764;2023-03-12T03:22:43;1.70;78.60
26099;DHT22;13860;52.370;6.764;2023-03-12T03:25:49;1.70;78.50
26099;DHT22;13860;52.370;6.764;2023-03-12T03:28:55;1.70;78.50
26099;DHT22;13860;52.370;6.764;2023-03-12T03:32:01;1.70;78.50
26099;DHT22;13860;52.370;6.764;2023-03-12T03:35:06;1.70;78.50
26099;DHT22;13860;52.370;6.764;2023-03-12T03:38:13;1.70;78.60
26099;DHT22;13860;52.370;6.764;2023-03-12T03:41:17;1.70;78.50
26099;DHT22;13860;52.370;6.764;2023-03-12T03:44:26;1.80;78.60
26099;DHT22;13860;52.370;6.764;2023-03-12T03:47:31;1.80;78.60
26099;DHT22;13860;52.370;6.764;2023-03-12T03:50:37;1.80;78.60
26099;DHT22;13860;52.370;6.764;2023-03-12T03:53:42;1.80;78.50
26099;DHT22;13860;52.370;6.764;2023-03-12T03:56:49;1.80;78.50
26099;DHT22;13860;52.370;6.764;2023-03-12T03:59:54;1.90;78.70
26099;DHT22;13860;52.370;6.764;2023-03-12T04:03:01;1.90;78.70
26099;DHT22;13860;52.370;6.764;2023-03-12T04:06:06;1.90;78.60
26099;DHT22;13860;52.370;6.764;2023-03-12T04:09:13;1.90;78.60
26099;DHT22;13860;52.370;6.764;2023-03-12T04:12:17;1.90;78.60
26099;DHT22;13860;52.370;6.764;2023-03-12T04:15:25;1.90;78.60
26099;DHT22;13860;52.370;6.764;2023-03-12T04:18:29;2.00;78.60
26099;DHT22;13860;52.370;6.764;2023-03-12T04:21:37;1.90;78.50
26099;DHT22;13860;52.370;6.764;2023-03-12T04:24:42;2.00;78.60
26099;DHT22;13860;52.370;6.764;2023-03-12T04:27:49;2.00;78.50
26099;DHT22;13860;52.370;6.764;2023-03-12T04:30:56;2.00;78.60
26099;DHT22;13860;52.370;6.764;2023-03-12T04:34:09;2.00;78.50
26099;DHT22;13860;52.370;6.764;2023-03-12T04:37:16;2.00;78.50
26099;DHT22;13860;52.370;6.764;2023-03-12T04:40:23;2.00;78.50
26099;DHT22;13860;52.370;6.764;2023-03-12T04:43:33;2.00;78.60
26099;DHT22;13860;52.370;6.764;2023-03-12T04:46:41;2.00;78.60
26099;DHT22;13860;52.370;6.764;2023-03-12T04:49:49;2.00;78.60
26099;DHT22;13860;52.370;6.764;2023-03-12T04:52:55;2.00;79.10
26099;DHT22;13860;52.370;6.764;2023-03-12T04:56:00;2.00;78.60
26099;DHT22;13860;52.370;6.764;2023-03-12T04:59:08;2.00;78.50
26099;DHT22;13860;52.370;6.764;2023-03-12T05:02:15;2.00;79.10
26099;DHT22;13860;52.370;6.764;2023-03-12T05:05:22;2.00;78.40
26099;DHT22;13860;52.370;6.764;2023-03-12T05:08:26;2.00;78.40
26099;DHT22;13860;52.370;6.764;2023-03-12T05:11:32;2.10;78.50
26099;DHT22;13860;52.370;6.764;2023-03-12T05:14:36;2.10;78.50
26099;DHT22;13860;52.370;6.764;2023-03-12T05:17:46;2.10;78.50
26099;DHT22;13860;52.370;6.764;2023-03-12T05:20:57;2.10;78.50
26099;DHT22;13860;52.370;6.764;2023-03-12T05:24:04;2.20;78.50
26099;DHT22;13860;52.370;6.764;2023-03-12T05:27:08;2.20;78.50
26099;DHT22;13860;52.370;6.764;2023-03-12T05:30:15;2.20;78.40
26099;DHT22;13860;52.370;6.764;2023-03-12T05:33:21;2.20;78.40
26099;DHT22;13860;52.370;6.764;2023-03-12T05:36:28;2.20;78.40
26099;DHT22;13860;52.370;6.764;2023-03-12T05:39:32;2.30;78.50
26099;DHT22;13860;52.370;6.764;2023-03-12T05:42:41;2.20;78.40
26099;DHT22;13860;52.370;6.764;2023-03-12T05:45:45;2.30;78.40
26099;DHT22;13860;52.370;6.764;2023-03-12T05:48:53;2.30;78.40
26099;DHT22;13860;52.370;6.764;2023-03-12T05:51:58;2.30;78.40
26099;DHT22;13860;52.370;6.764;2023-03-12T05:55:06;2.30;78.30
26099;DHT22;13860;52.370;6.764;2023-03-12T05:58:10;2.30;78.30
26099;DHT22;13860;52.370;6.764;2023-03-12T06:01:19;2.40;78.40
26099;DHT22;13860;52.370;6.764;2023-03-12T06:04:26;2.50;78.40
26099;DHT22;13860;52.370;6.764;2023-03-12T06:07:32;2.40;78.30
26099;DHT22;13860;52.370;6.764;2023-03-12T06:10:37;2.40;78.30
26099;DHT22;13860;52.370;6.764;2023-03-12T06:13:43;2.50;78.30
26099;DHT22;13860;52.370;6.764;2023-03-12T06:16:47;2.50;78.30
26099;DHT22;13860;52.370;6.764;2023-03-12T06:19:56;2.50;78.30
26099;DHT22;13860;52.370;6.764;2023-03-12T06:23:00;2.50;78.30
26099;DHT22;13860;52.370;6.764;2023-03-12T06:26:09;2.50;78.20
26099;DHT22;13860;52.370;6.764;2023-03-12T06:29:13;2.60;78.30
26099;DHT22;13860;52.370;6.764;2023-03-12T06:32:20;2.60;78.20
26099;DHT22;13860;52.370;6.764;2023-03-12T06:35:25;2.60;78.20
26099;DHT22;13860;52.370;6.764;2023-03-12T06:38:32;2.60;78.20
26099;DHT22;13860;52.370;6.764;2023-03-12T06:41:36;2.60;78.20
26099;DHT22;13860;52.370;6.764;2023-03-12T06:44:44;2.70;78.20
26099;DHT22;13860;52.370;6.764;2023-03-12T06:47:48;2.70;78.30
26099;DHT22;13860;52.370;6.764;2023-03-12T06:50:56;2.70;78.20
26099;DHT22;13860;52.370;6.764;2023-03-12T06:54:00;2.70;78.20
26099;DHT22;13860;52.370;6.764;2023-03-12T06:57:06;2.80;78.30
26099;DHT22;13860;52.370;6.764;2023-03-12T07:00:11;2.80;78.30
26099;DHT22;13860;52.370;6.764;2023-03-12T07:03:17;2.80;78.20
26099;DHT22;13860;52.370;6.764;2023-03-12T07:06:24;2.80;78.20
26099;DHT22;13860;52.370;6.764;2023-03-12T07:09:30;2.80;78.20
26099;DHT22;13860;52.370;6.764;2023-03-12T07:12:34;2.90;78.30
26099;DHT22;13860;52.370;6.764;2023-03-12T07:15:40;2.90;78.30
26099;DHT22;13860;52.370;6.764;2023-03-12T07:18:45;2.90;78.30
26099;DHT22;13860;52.370;6.764;2023-03-12T07:21:53;2.90;78.30
26099;DHT22;13860;52.370;6.764;2023-03-12T07:24:57;2.90;78.30
26099;DHT22;13860;52.370;6.764;2023-03-12T07:28:04;2.90;78.30
26099;DHT22;13860;52.370;6.764;2023-03-12T07:31:08;3.00;78.40
26099;DHT22;13860;52.370;6.764;2023-03-12T07:34:14;3.00;78.40
26099;DHT22;13860;52.370;6.764;2023-03-12T07:37:20;3.00;78.40
26099;DHT22;13860;52.370;6.764;2023-03-12T07:40:27;3.00;78.40
26099;DHT22;13860;52.370;6.764;2023-03-12T07:43:31;3.00;78.40
26099;DHT22;13860;52.370;6.764;2023-03-12T07:46:37;3.10;78.50
26099;DHT22;13860;52.370;6.764;2023-03-12T07:49:41;3.10;78.50
26099;DHT22;13860;52.370;6.764;2023-03-12T07:52:49;3.10;78.50
26099;DHT22;13860;52.370;6.764;2023-03-12T07:55:54;3.10;78.60
26099;DHT22;13860;52.370;6.764;2023-03-12T07:59:00;3.10;78.60
26099;DHT22;13860;52.370;6.764;2023-03-12T08:02:05;3.10;78.70
26099;DHT22;13860;52.370;6.764;2023-03-12T08:05:11;3.10;78.70
26099;DHT22;13860;52.370;6.764;2023-03-12T08:08:17;3.10;78.70
26099;DHT22;13860;52.370;6.764;2023-03-12T08:11:24;3.20;78.80
26099;DHT22;13860;52.370;6.764;2023-03-12T08:14:28;3.10;78.80
26099;DHT22;13860;52.370;6.764;2023-03-12T08:17:34;3.20;78.90
26099;DHT22;13860;52.370;6.764;2023-03-12T08:20:38;3.20;78.90
26099;DHT22;13860;52.370;6.764;2023-03-12T08:23:46;3.20;79.00
26099;DHT22;13860;52.370;6.764;2023-03-12T08:26:51;3.20;79.00
26099;DHT22;13860;52.370;6.764;2023-03-12T08:29:57;3.20;79.00
26099;DHT22;13860;52.370;6.764;2023-03-12T08:33:01;3.20;79.10
26099;DHT22;13860;52.370;6.764;2023-03-12T08:36:07;3.30;79.10
26099;DHT22;13860;52.370;6.764;2023-03-12T08:39:13;3.30;79.20
26099;DHT22;13860;52.370;6.764;2023-03-12T08:42:19;3.30;79.20
26099;DHT22;13860;52.370;6.764;2023-03-12T08:45:23;3.30;79.20
26099;DHT22;13860;52.370;6.764;2023-03-12T08:48:30;3.30;79.30
26099;DHT22;13860;52.370;6.764;2023-03-12T08:51:34;3.30;79.30
26099;DHT22;13860;52.370;6.764;2023-03-12T08:54:42;3.30;79.30
26099;DHT22;13860;52.370;6.764;2023-03-12T08:57:47;3.30;79.30
26099;DHT22;13860;52.370;6.764;2023-03-12T09:00:53;3.40;79.40
26099;DHT22;13860;52.370;6.764;2023-03-12T09:03:58;3.40;79.50
26099;DHT22;13860;52.370;6.764;2023-03-12T09:07:05;3.40;79.50
26099;DHT22;13860;52.370;6.764;2023-03-12T09:10:12;3.40;79.50
26099;DHT22;13860;52.370;6.764;2023-03-12T09:13:18;3.50;79.60
26099;DHT22;13860;52.370;6.764;2023-03-12T09:16:22;3.50;79.60
26099;DHT22;13860;52.370;6.764;2023-03-12T09:19:28;3.50;79.70
26099;DHT22;13860;52.370;6.764;2023-03-12T09:22:32;3.50;79.70
26099;DHT22;13860;52.370;6.764;2023-03-12T09:25:44;3.60;79.80
26099;DHT22;13860;52.370;6.764;2023-03-12T09:28:48;3.60;79.90
26099;DHT22;13860;52.370;6.764;2023-03-12T09:31:54;3.60;79.90
26099;DHT22;13860;52.370;6.764;2023-03-12T09:34:58;3.60;79.90
26099;DHT22;13860;52.370;6.764;2023-03-12T09:38:04;3.60;79.90
26099;DHT22;13860;52.370;6.764;2023-03-12T09:41:18;3.60;80.00
26099;DHT22;13860;52.370;6.764;2023-03-12T09:44:29;3.60;80.10
26099;DHT22;13860;52.370;6.764;2023-03-12T09:47:36;3.70;80.10
26099;DHT22;13860;52.370;6.764;2023-03-12T09:50:48;3.70;80.10
26099;DHT22;13860;52.370;6.764;2023-03-12T09:53:55;3.80;80.30
26099;DHT22;13860;52.370;6.764;2023-03-12T09:57:11;3.80;80.30
26099;DHT22;13860;52.370;6.764;2023-03-12T10:00:18;3.80;80.30
26099;DHT22;13860;52.370;6.764;2023-03-12T10:03:51;3.80;80.30
26099;DHT22;13860;52.370;6.764;2023-03-12T10:07:01;3.90;80.20
26099;DHT22;13860;52.370;6.764;2023-03-12T10:14:00;3.90;80.40
26099;DHT22;13860;52.370;6.764;2023-03-12T10:17:24;3.90;80.50
26099;DHT22;13860;52.370;6.764;2023-03-12T10:20:45;4.00;80.60
26099;DHT22;13860;52.370;6.764;2023-03-12T10:24:06;4.00;80.60
26099;DHT22;13860;52.370;6.764;2023-03-12T10:27:14;4.10;80.70
26099;DHT22;13860;52.370;6.764;2023-03-12T10:30:24;4.10;80.70
26099;DHT22;13860;52.370;6.764;2023-03-12T10:33:39;4.10;80.80
26099;DHT22;13860;52.370;6.764;2023-03-12T10:36:47;4.20;81.50
26099;DHT22;13860;52.370;6.764;2023-03-12T10:39:53;4.30;80.90
26099;DHT22;13860;52.370;6.764;2023-03-12T10:43:01;4.30;81.00
26099;DHT22;13860;52.370;6.764;2023-03-12T10:46:27;4.40;81.10
26099;DHT22;13860;52.370;6.764;2023-03-12T10:49:37;4.40;81.20
26099;DHT22;13860;52.370;6.764;2023-03-12T10:52:42;4.40;81.20
26099;DHT22;13860;52.370;6.764;2023-03-12T10:55:58;4.50;81.20
26099;DHT22;13860;52.370;6.764;2023-03-12T10:59:09;4.60;81.40
26099;DHT22;13860;52.370;6.764;2023-03-12T11:02:32;4.60;81.40
26099;DHT22;13860;52.370;6.764;2023-03-12T11:05:46;4.70;81.50
26099;DHT22;13860;52.370;6.764;2023-03-12T11:09:05;4.70;81.50
26099;DHT22;13860;52.370;6.764;2023-03-12T11:12:26;4.80;81.60
26099;DHT22;13860;52.370;6.764;2023-03-12T11:15:38;4.90;81.70
26099;DHT22;13860;52.370;6.764;2023-03-12T11:18:53;5.00;81.70
26099;DHT22;13860;52.370;6.764;2023-03-12T11:22:00;5.00;81.90
26099;DHT22;13860;52.370;6.764;2023-03-12T11:25:18;5.10;81.80
26099;DHT22;13860;52.370;6.764;2023-03-12T11:28:28;5.20;81.90
26099;DHT22;13860;52.370;6.764;2023-03-12T11:31:38;5.20;81.90
26099;DHT22;13860;52.370;6.764;2023-03-12T11:34:50;5.30;82.10
26099;DHT22;13860;52.370;6.764;2023-03-12T11:38:00;5.40;82.00
26099;DHT22;13860;52.370;6.764;2023-03-12T11:41:26;5.40;81.90
26099;DHT22;13860;52.370;6.764;2023-03-12T11:44:41;5.50;82.10
26099;DHT22;13860;52.370;6.764;2023-03-12T11:47:58;5.50;82.00
26099;DHT22;13860;52.370;6.764;2023-03-12T11:51:18;5.60;82.20
26099;DHT22;13860;52.370;6.764;2023-03-12T11:54:47;5.70;82.30
26099;DHT22;13860;52.370;6.764;2023-03-12T11:58:05;5.70;82.30
26099;DHT22;13860;52.370;6.764;2023-03-12T12:01:19;5.80;82.30
26099;DHT22;13860;52.370;6.764;2023-03-12T12:04:46;5.90;82.40
26099;DHT22;13860;52.370;6.764;2023-03-12T12:08:08;6.00;82.60
26099;DHT22;13860;52.370;6.764;2023-03-12T12:11:18;6.00;82.50
26099;DHT22;13860;52.370;6.764;2023-03-12T12:14:36;6.10;82.50
26099;DHT22;13860;52.370;6.764;2023-03-12T12:17:52;6.20;82.60
26099;DHT22;13860;52.370;6.764;2023-03-12T12:21:04;6.30;82.70
26099;DHT22;13860;52.370;6.764;2023-03-12T12:24:20;6.40;82.80
26099;DHT22;13860;52.370;6.764;2023-03-12T12:27:31;6.40;82.90
26099;DHT22;13860;52.370;6.764;2023-03-12T12:30:47;6.50;82.90
26099;DHT22;13860;52.370;6.764;2023-03-12T12:34:16;6.60;83.10
26099;DHT22;13860;52.370;6.764;2023-03-12T12:37:31;6.70;83.10
26099;DHT22;13860;52.370;6.764;2023-03-12T12:40:44;6.80;83.20
26099;DHT22;13860;52.370;6.764;2023-03-12T12:43:52;6.90;83.20
26099;DHT22;13860;52.370;6.764;2023-03-12T12:47:04;7.00;83.30
26099;DHT22;13860;52.370;6.764;2023-03-12T12:50:17;7.10;83.30
26099;DHT22;13860;52.370;6.764;2023-03-12T12:53:26;7.20;83.40
26099;DHT22;13860;52.370;6.764;2023-03-12T12:56:40;7.30;83.50
26099;DHT22;13860;52.370;6.764;2023-03-12T13:00:03;7.40;83.60
26099;DHT22;13860;52.370;6.764;2023-03-12T13:03:13;7.50;83.70
26099;DHT22;13860;52.370;6.764;2023-03-12T13:06:20;7.60;83.60
26099;DHT22;13860;52.370;6.764;2023-03-12T13:09:39;7.60;83.70
26099;DHT22;13860;52.370;6.764;2023-03-12T13:12:50;7.70;83.90
26099;DHT22;13860;52.370;6.764;2023-03-12T13:16:18;7.90;83.80
26099;DHT22;13860;52.370;6.764;2023-03-12T13:19:26;8.00;84.00
26099;DHT22;13860;52.370;6.764;2023-03-12T13:26:06;8.10;84.10
26099;DHT22;13860;52.370;6.764;2023-03-12T13:29:22;8.20;84.10
26099;DHT22;13860;52.370;6.764;2023-03-12T13:33:08;8.30;84.10
26099;DHT22;13860;52.370;6.764;2023-03-12T13:36:21;8.40;84.20
26099;DHT22;13860;52.370;6.764;2023-03-12T13:39:30;8.50;84.20
26099;DHT22;13860;52.370;6.764;2023-03-12T13:42:37;8.60;84.10
26099;DHT22;13860;52.370;6.764;2023-03-12T13:45:59;8.70;84.30
26099;DHT22;13860;52.370;6.764;2023-03-12T13:49:13;8.70;84.40
26099;DHT22;13860;52.370;6.764;2023-03-12T13:52:24;8.80;84.40
26099;DHT22;13860;52.370;6.764;2023-03-12T13:55:31;8.90;84.40
26099;DHT22;13860;52.370;6.764;2023-03-12T13:58:40;9.00;84.40
26099;DHT22;13860;52.370;6.764;2023-03-12T14:01:49;9.00;84.50
26099;DHT22;13860;52.370;6.764;2023-03-12T14:05:02;9.20;84.60
26099;DHT22;13860;52.370;6.764;2023-03-12T14:08:16;9.20;84.60
26099;DHT22;13860;52.370;6.764;2023-03-12T14:11:40;9.30;84.60
26099;DHT22;13860;52.370;6.764;2023-03-12T14:15:05;9.40;84.70
26099;DHT22;13860;52.370;6.764;2023-03-12T14:18:19;9.50;84.80
26099;DHT22;13860;52.370;6.764;2023-03-12T14:21:28;9.50;84.60
26099;DHT22;13860;52.370;6.764;2023-03-12T14:24:39;9.60;84.60
26099;DHT22;13860;52.370;6.764;2023-03-12T14:27:45;9.60;84.60
26099;DHT22;13860;52.370;6.764;2023-03-12T14:30:57;9.70;84.60
26099;DHT22;13860;52.370;6.764;2023-03-12T14:34:07;9.70;84.60
26099;DHT22;13860;52.370;6.764;2023-03-12T14:37:17;9.80;84.60
26099;DHT22;13860;52.370;6.764;2023-03-12T14:40:25;9.80;84.60
26099;DHT22;13860;52.370;6.764;2023-03-12T14:43:35;9.90;84.70
26099;DHT22;13860;52.370;6.764;2023-03-12T14:46:45;9.90;84.70
26099;DHT22;13860;52.370;6.764;2023-03-12T14:50:02;9.90;84.70
26099;DHT22;13860;52.370;6.764;2023-03-12T14:53:11;9.90;84.60
26099;DHT22;13860;52.370;6.764;2023-03-12T14:56:22;9.90;84.70
26099;DHT22;13860;52.370;6.764;2023-03-12T14:59:31;10.00;84.80
26099;DHT22;13860;52.370;6.764;2023-03-12T15:02:37;10.00;84.80
26099;DHT22;13860;52.370;6.764;2023-03-12T15:05:46;10.00;84.80
26099;DHT22;13860;52.370;6.764;2023-03-12T15:08:53;10.00;84.90
26099;DHT22;13860;52.370;6.764;2023-03-12T15:11:59;10.00;84.90
26099;DHT22;13860;52.370;6.764;2023-03-12T15:15:08;10.10;85.00
26099;DHT22;13860;52.370;6.764;2023-03-12T15:18:16;10.10;85.00
26099;DHT22;13860;52.370;6.764;2023-03-12T15:21:25;10.10;85.00
26099;DHT22;13860;52.370;6.764;2023-03-12T15:24:35;10.20;85.00
26099;DHT22;13860;52.370;6.764;2023-03-12T15:27:43;10.20;85.10
26099;DHT22;13860;52.370;6.764;2023-03-12T15:31:04;10.20;85.00
26099;DHT22;13860;52.370;6.764;2023-03-12T15:34:26;10.30;85.20
26099;DHT22;13860;52.370;6.764;2023-03-12T15:37:35;10.30;85.10
26099;DHT22;13860;52.370;6.764;2023-03-12T15:40:48;10.30;85.10
26099;DHT22;13860;52.370;6.764;2023-03-12T15:43:54;10.30;85.10
26099;DHT22;13860;52.370;6.764;2023-03-12T15:47:04;10.30;85.10
26099;DHT22;13860;52.370;6.764;2023-03-12T15:50:15;10.40;85.20
26099;DHT22;13860;52.370;6.764;2023-03-12T15:53:25;10.40;85.10
26099;DHT22;13860;52.370;6.764;2023-03-12T15:56:33;10.50;85.00
26099;DHT22;13860;52.370;6.764;2023-03-12T15:59:39;10.50;84.90
26099;DHT22;13860;52.370;6.764;2023-03-12T16:02:47;10.50;84.90
26099;DHT22;13860;52.370;6.764;2023-03-12T16:05:55;10.50;84.90
26099;DHT22;13860;52.370;6.764;2023-03-12T16:09:02;10.50;84.80
26099;DHT22;13860;52.370;6.764;2023-03-12T16:12:09;10.50;84.80
26099;DHT22;13860;52.370;6.764;2023-03-12T16:15:15;10.50;84.70
26099;DHT22;13860;52.370;6.764;2023-03-12T16:18:23;10.50;84.80
26099;DHT22;13860;52.370;6.764;2023-03-12T16:21:26;10.50;84.70
26099;DHT22;13860;52.370;6.764;2023-03-12T16:24:35;10.60;84.70
26099;DHT22;13860;52.370;6.764;2023-03-12T16:27:44;10.50;84.60
26099;DHT22;13860;52.370;6.764;2023-03-12T16:30:52;10.50;84.60
26099;DHT22;13860;52.370;6.764;2023-03-12T16:33:56;10.50;84.50
26099;DHT22;13860;52.370;6.764;2023-03-12T16:37:03;10.60;84.50
26099;DHT22;13860;52.370;6.764;2023-03-12T16:40:11;10.50;84.40
26099;DHT22;13860;52.370;6.764;2023-03-12T16:43:24;10.60;84.40
26099;DHT22;13860;52.370;6.764;2023-03-12T16:46:30;10.60;84.30
26099;DHT22;13860;52.370;6.764;2023-03-12T16:49:37;10.60;84.20
26099;DHT22;13860;52.370;6.764;2023-03-12T16:52:41;10.60;84.20
26099;DHT22;13860;52.370;6.764;2023-03-12T16:55:53;10.50;84.10
26099;DHT22;13860;52.370;6.764;2023-03-12T16:58:59;10.60;84.10
26099;DHT22;13860;52.370;6.764;2023-03-12T17:02:14;10.60;84.00
26099;DHT22;13860;52.370;6.764;2023-03-12T17:05:19;10.60;83.90
26099;DHT22;13860;52.370;6.764;2023-03-12T17:08:25;10.50;83.80
26099;DHT22;13860;52.370;6.764;2023-03-12T17:11:31;10.50;83.80
26099;DHT22;13860;52.370;6.764;2023-03-12T17:14:37;10.50;83.70
26099;DHT22;13860;52.370;6.764;2023-03-12T17:17:41;10.50;83.70
26099;DHT22;13860;52.370;6.764;2023-03-12T17:20:48;10.40;83.50
26099;DHT22;13860;52.370;6.764;2023-03-12T17:23:52;10.40;83.50
26099;DHT22;13860;52.370;6.764;2023-03-12T17:27:00;10.40;83.50
26099;DHT22;13860;52.370;6.764;2023-03-12T17:30:06;10.40;83.40
26099;DHT22;13860;52.370;6.764;2023-03-12T17:33:13;10.40;83.40
26099;DHT22;13860;52.370;6.764;2023-03-12T17:36:18;10.40;83.40
26099;DHT22;13860;52.370;6.764;2023-03-12T17:39:24;10.40;83.40
26099;DHT22;13860;52.370;6.764;2023-03-12T17:42:30;10.30;83.30
26099;DHT22;13860;52.370;6.764;2023-03-12T17:45:37;10.30;83.20
26099;DHT22;13860;52.370;6.764;2023-03-12T17:48:40;10.30;83.10
26099;DHT22;13860;52.370;6.764;2023-03-12T17:51:46;10.30;83.10
26099;DHT22;13860;52.370;6.764;2023-03-12T17:54:50;10.30;83.10
26099;DHT22;13860;52.370;6.764;2023-03-12T17:57:58;10.30;83.10
26099;DHT22;13860;52.370;6.764;2023-03-12T18:01:04;10.20;83.00
26099;DHT22;13860;52.370;6.764;2023-03-12T18:04:09;10.20;83.00
26099;DHT22;13860;52.370;6.764;2023-03-12T18:07:13;10.20;83.00
26099;DHT22;13860;52.370;6.764;2023-03-12T18:10:20;10.10;83.00
26099;DHT22;13860;52.370;6.764;2023-03-12T18:13:25;10.10;83.00
26099;DHT22;13860;52.370;6.764;2023-03-12T18:16:32;10.10;83.00
26099;DHT22;13860;52.370;6.764;2023-03-12T18:19:35;10.10;83.00
26099;DHT22;13860;52.370;6.764;2023-03-12T18:22:41;10.10;83.00
26099;DHT22;13860;52.370;6.764;2023-03-12T18:25:46;10.10;83.00
26099;DHT22;13860;52.370;6.764;2023-03-12T18:28:53;10.10;83.00
26099;DHT22;13860;52.370;6.764;2023-03-12T18:31:58;10.10;83.00
26099;DHT22;13860;52.370;6.764;2023-03-12T18:35:06;10.10;83.00
26099;DHT22;13860;52.370;6.764;2023-03-12T18:38:10;10.10;83.10
26099;DHT22;13860;52.370;6.764;2023-03-12T18:41:16;10.10;83.10
26099;DHT22;13860;52.370;6.764;2023-03-12T18:44:22;10.10;83.10
26099;DHT22;13860;52.370;6.764;2023-03-12T18:47:28;10.10;83.10
26099;DHT22;13860;52.370;6.764;2023-03-12T18:50:31;10.10;83.00
26099;DHT22;13860;52.370;6.764;2023-03-12T18:53:37;10.10;83.00
26099;DHT22;13860;52.370;6.764;2023-03-12T18:56:41;10.10;83.00
26099;DHT22;13860;52.370;6.764;2023-03-12T18:59:49;10.10;83.00
26099;DHT22;13860;52.370;6.764;2023-03-12T19:02:53;10.10;83.00
26099;DHT22;13860;52.370;6.764;2023-03-12T19:06:01;10.10;83.10
26099;DHT22;13860;52.370;6.764;2023-03-12T19:09:05;10.10;83.10
26099;DHT22;13860;52.370;6.764;2023-03-12T19:12:12;10.10;83.10
26099;DHT22;13860;52.370;6.764;2023-03-12T19:15:17;10.10;83.10
26099;DHT22;13860;52.370;6.764;2023-03-12T19:18:23;10.10;83.00
26099;DHT22;13860;52.370;6.764;2023-03-12T19:21:28;10.10;83.00
26099;DHT22;13860;52.370;6.764;2023-03-12T19:24:33;10.10;83.00
26099;DHT22;13860;52.370;6.764;2023-03-12T19:27:38;10.10;83.10
26099;DHT22;13860;52.370;6.764;2023-03-12T19:30:46;10.20;83.10
26099;DHT22;13860;52.370;6.764;2023-03-12T19:33:50;10.20;83.10
26099;DHT22;13860;52.370;6.764;2023-03-12T19:36:56;10.20;83.10
26099;DHT22;13860;52.370;6.764;2023-03-12T19:40:00;10.20;83.20
26099;DHT22;13860;52.370;6.764;2023-03-12T19:43:08;10.20;83.10
26099;DHT22;13860;52.370;6.764;2023-03-12T19:46:14;10.20;83.00
26099;DHT22;13860;52.370;6.764;2023-03-12T19:49:20;10.30;83.10
26099;DHT22;13860;52.370;6.764;2023-03-12T19:52:24;10.20;83.00
26099;DHT22;13860;52.370;6.764;2023-03-12T19:55:30;10.20;83.10
26099;DHT22;13860;52.370;6.764;2023-03-12T19:58:34;10.20;83.10
26099;DHT22;13860;52.370;6.764;2023-03-12T20:01:42;10.30;83.10
26099;DHT22;13860;52.370;6.764;2023-03-12T20:04:46;10.30;83.20
26099;DHT22;13860;52.370;6.764;2023-03-12T20:07:52;10.30;83.20
26099;DHT22;13860;52.370;6.764;2023-03-12T20:11:00;10.30;83.20